Terminal Aerodrome Forecast
Issued by NWS Springfield, MO

Home | Current Version | Previous Version | Text Only | Print | Product List | Glossary On
Versions: 1 2 3 4 5 6 7 8 9 10 11 12 13 14 15 16 17 18 19 20 21
000
FTUS43 KSGF 250520
TAFSGF
TAF
KSGF 250520Z 2506/2606 VRB03KT P6SM FEW110
      TEMPO 2514/2515 4SM -SHRA OVC025
     FM251600 25005KT 6SM -SHRA OVC030
     FM251900 09005KT 6SM -SHRA OVC012
     FM260000 02005KT 3SM SHRA OVC008=

USA.gov is the U.S. government's official web portal to all federal, state and local government web resources and services.